< < Back
Terminal Aerodrome Forecast


Current Version              Previous Versions:   1  2  3  4  5  6  7  8  9  

Terminal Aerodrome Forecast

202
FTUS42 KTAE 010540
TAFDHN
TAF
KDHN 010540Z 0106/0206 22009KT P6SM SCT250
     FM011000 25006KT 5SM BR SCT250
     FM011500 29007KT P6SM SCT030
     FM011700 26010G15KT P6SM BKN040=



Latest METAR

653
SAUS70 KWBC 012200 RRN
MTRDHN
METAR KDHN 012153Z 23007KT 10SM FEW070 28/13 A3005 RMK AO2 SLP169
T02780133


USA.gov is the U.S. government's official web portal to all federal, state and local government web resources and services.